sensor_id;sensor_type;location;lat;lon;timestamp;pressure;altitude;pressure_sealevel;temperature;humidity
16355;BME280;8287;51.644;8.494;2022-09-16T00:01:49;99715.50;;;15.58;80.75
16355;BME280;8287;51.644;8.494;2022-09-16T00:04:16;99713.19;;;15.57;80.01
16355;BME280;8287;51.644;8.494;2022-09-16T00:06:43;99718.66;;;15.45;80.65
16355;BME280;8287;51.644;8.494;2022-09-16T00:09:09;99725.28;;;15.51;80.71
16355;BME280;8287;51.644;8.494;2022-09-16T00:11:36;99715.84;;;15.57;80.77
16355;BME280;8287;51.644;8.494;2022-09-16T00:14:04;99715.50;;;15.58;80.82
16355;BME280;8287;51.644;8.494;2022-09-16T00:16:30;99713.31;;;15.64;80.47
16355;BME280;8287;51.644;8.494;2022-09-16T00:18:58;99718.94;;;15.59;80.04
16355;BME280;8287;51.644;8.494;2022-09-16T00:21:27;99715.84;;;15.57;80.40
16355;BME280;8287;51.644;8.494;2022-09-16T00:23:54;99716.34;;;15.62;80.35
16355;BME280;8287;51.644;8.494;2022-09-16T00:26:21;99708.63;;;15.57;80.23
16355;BME280;8287;51.644;8.494;2022-09-16T00:28:48;99708.69;;;15.61;80.41
16355;BME280;8287;51.644;8.494;2022-09-16T00:31:16;99717.28;;;15.51;80.90
16355;BME280;8287;51.644;8.494;2022-09-16T00:33:43;99710.03;;;15.51;80.39
16355;BME280;8287;51.644;8.494;2022-09-16T00:36:11;99716.75;;;15.45;81.00
16355;BME280;8287;51.644;8.494;2022-09-16T00:38:39;99715.03;;;15.53;80.40
16355;BME280;8287;51.644;8.494;2022-09-16T00:41:06;99714.56;;;15.32;81.39
16355;BME280;8287;51.644;8.494;2022-09-16T00:43:49;99717.69;;;15.34;81.34
16355;BME280;8287;51.644;8.494;2022-09-16T00:46:21;99712.69;;;15.32;81.24
16355;BME280;8287;51.644;8.494;2022-09-16T00:48:49;99707.69;;;15.31;81.06
16355;BME280;8287;51.644;8.494;2022-09-16T00:51:17;99715.06;;;15.37;80.65
16355;BME280;8287;51.644;8.494;2022-09-16T00:53:47;99715.91;;;15.41;80.97
16355;BME280;8287;51.644;8.494;2022-09-16T00:56:17;99709.13;;;15.28;81.04
16355;BME280;8287;51.644;8.494;2022-09-16T00:58:49;99707.22;;;15.29;81.15
16355;BME280;8287;51.644;8.494;2022-09-16T01:01:21;99709.41;;;15.23;81.11
16355;BME280;8287;51.644;8.494;2022-09-16T01:03:51;99701.28;;;15.35;80.42
16355;BME280;8287;51.644;8.494;2022-09-16T01:06:20;99705.25;;;15.41;80.71
16355;BME280;8287;51.644;8.494;2022-09-16T01:08:49;99699.03;;;15.37;80.24
16355;BME280;8287;51.644;8.494;2022-09-16T01:11:15;99697.16;;;15.38;80.82
16355;BME280;8287;51.644;8.494;2022-09-16T01:13:43;99703.28;;;15.38;80.66
16355;BME280;8287;51.644;8.494;2022-09-16T01:16:14;99701.03;;;15.40;80.39
16355;BME280;8287;51.644;8.494;2022-09-16T01:18:47;99693.03;;;15.40;80.74
16355;BME280;8287;51.644;8.494;2022-09-16T01:21:26;99698.09;;;15.30;81.53
16355;BME280;8287;51.644;8.494;2022-09-16T01:27:13;99696.94;;;15.46;80.86
16355;BME280;8287;51.644;8.494;2022-09-16T01:30:12;99697.66;;;15.43;80.84
16355;BME280;8287;51.644;8.494;2022-09-16T01:32:52;99694.84;;;15.55;80.20
16355;BME280;8287;51.644;8.494;2022-09-16T01:35:28;99698.44;;;15.44;81.06
16355;BME280;8287;51.644;8.494;2022-09-16T01:38:08;99693.59;;;15.49;81.00
16355;BME280;8287;51.644;8.494;2022-09-16T01:40:41;99703.91;;;15.51;80.90
16355;BME280;8287;51.644;8.494;2022-09-16T01:43:17;99702.28;;;15.46;80.87
16355;BME280;8287;51.644;8.494;2022-09-16T01:45:51;99696.53;;;15.44;81.24
16355;BME280;8287;51.644;8.494;2022-09-16T01:48:24;99700.06;;;15.48;80.73
16355;BME280;8287;51.644;8.494;2022-09-16T01:50:59;99696.94;;;15.46;81.07
16355;BME280;8287;51.644;8.494;2022-09-16T01:53:32;99698.28;;;15.37;80.94
16355;BME280;8287;51.644;8.494;2022-09-16T01:56:04;99698.00;;;15.42;81.33
16355;BME280;8287;51.644;8.494;2022-09-16T01:58:37;99709.59;;;15.49;80.71
16355;BME280;8287;51.644;8.494;2022-09-16T02:01:09;99707.19;;;15.44;81.26
16355;BME280;8287;51.644;8.494;2022-09-16T02:03:42;99700.94;;;15.37;80.92
16355;BME280;8287;51.644;8.494;2022-09-16T02:06:14;99700.31;;;15.43;80.97
16355;BME280;8287;51.644;8.494;2022-09-16T02:08:47;99697.56;;;15.40;80.90
16355;BME280;8287;51.644;8.494;2022-09-16T02:11:18;99707.50;;;15.39;80.57
16355;BME280;8287;51.644;8.494;2022-09-16T02:13:48;99702.56;;;15.41;80.52
16355;BME280;8287;51.644;8.494;2022-09-16T02:16:21;99700.63;;;15.38;80.71
16355;BME280;8287;51.644;8.494;2022-09-16T02:18:53;99697.50;;;15.36;80.90
16355;BME280;8287;51.644;8.494;2022-09-16T02:21:24;99688.13;;;15.27;80.86
16355;BME280;8287;51.644;8.494;2022-09-16T02:23:54;99693.69;;;15.37;80.51
16355;BME280;8287;51.644;8.494;2022-09-16T02:26:26;99693.56;;;15.30;80.76
16355;BME280;8287;51.644;8.494;2022-09-16T02:28:55;99701.66;;;15.18;81.03
16355;BME280;8287;51.644;8.494;2022-09-16T02:31:24;99697.47;;;15.17;81.34
16355;BME280;8287;51.644;8.494;2022-09-16T02:33:55;99695.69;;;15.25;80.87
16355;BME280;8287;51.644;8.494;2022-09-16T02:36:25;99698.03;;;15.26;80.87
16355;BME280;8287;51.644;8.494;2022-09-16T02:38:55;99694.53;;;15.22;80.47
16355;BME280;8287;51.644;8.494;2022-09-16T02:41:23;99696.81;;;15.24;80.55
16355;BME280;8287;51.644;8.494;2022-09-16T02:43:50;99687.63;;;15.21;80.86
16355;BME280;8287;51.644;8.494;2022-09-16T02:46:23;99698.03;;;15.26;80.60
16355;BME280;8287;51.644;8.494;2022-09-16T02:48:58;99687.63;;;15.21;81.21
16355;BME280;8287;51.644;8.494;2022-09-16T02:51:32;99692.63;;;15.23;81.40
16355;BME280;8287;51.644;8.494;2022-09-16T02:54:08;99691.69;;;15.15;81.32
16355;BME280;8287;51.644;8.494;2022-09-16T02:56:39;99685.41;;;15.08;81.76
16355;BME280;8287;51.644;8.494;2022-09-16T02:59:10;99690.56;;;15.16;81.82
16355;BME280;8287;51.644;8.494;2022-09-16T03:01:39;99688.38;;;15.03;82.25
16355;BME280;8287;51.644;8.494;2022-09-16T03:04:08;99688.53;;;15.10;82.18
16355;BME280;8287;51.644;8.494;2022-09-16T03:06:35;99682.97;;;15.18;81.79
16355;BME280;8287;51.644;8.494;2022-09-16T03:09:05;99686.63;;;15.10;82.22
16355;BME280;8287;51.644;8.494;2022-09-16T03:11:55;99696.16;;;15.11;82.26
16355;BME280;8287;51.644;8.494;2022-09-16T03:17:51;99685.47;;;14.92;83.12
16355;BME280;8287;51.644;8.494;2022-09-16T03:20:29;99686.59;;;14.91;83.23
16355;BME280;8287;51.644;8.494;2022-09-16T03:23:10;99684.69;;;14.92;82.98
16355;BME280;8287;51.644;8.494;2022-09-16T03:25:44;99687.72;;;14.90;83.22
16355;BME280;8287;51.644;8.494;2022-09-16T03:28:16;99688.38;;;14.87;82.97
16355;BME280;8287;51.644;8.494;2022-09-16T03:30:48;99686.94;;;14.90;82.98
16355;BME280;8287;51.644;8.494;2022-09-16T03:33:22;99683.59;;;14.93;82.52
16355;BME280;8287;51.644;8.494;2022-09-16T03:35:51;99697.34;;;14.95;82.49
16355;BME280;8287;51.644;8.494;2022-09-16T03:38:22;99687.88;;;14.97;82.36
16355;BME280;8287;51.644;8.494;2022-09-16T03:40:49;99680.56;;;14.94;82.34
16355;BME280;8287;51.644;8.494;2022-09-16T03:43:16;99680.13;;;14.92;82.50
16355;BME280;8287;51.644;8.494;2022-09-16T03:45:43;99676.84;;;14.99;82.19
16355;BME280;8287;51.644;8.494;2022-09-16T03:48:11;99676.25;;;15.05;82.00
16355;BME280;8287;51.644;8.494;2022-09-16T03:50:38;99669.22;;;14.97;82.21
16355;BME280;8287;51.644;8.494;2022-09-16T03:53:06;99666.31;;;15.06;81.63
16355;BME280;8287;51.644;8.494;2022-09-16T03:55:33;99667.03;;;15.03;81.99
16355;BME280;8287;51.644;8.494;2022-09-16T03:57:59;99663.47;;;15.14;81.75
16355;BME280;8287;51.644;8.494;2022-09-16T04:00:26;99669.84;;;15.10;82.20
16355;BME280;8287;51.644;8.494;2022-09-16T04:02:54;99669.34;;;15.04;82.09
16355;BME280;8287;51.644;8.494;2022-09-16T04:05:20;99664.44;;;15.06;82.16
16355;BME280;8287;51.644;8.494;2022-09-16T04:07:47;99672.00;;;15.04;82.51
16355;BME280;8287;51.644;8.494;2022-09-16T04:10:15;99663.16;;;15.00;83.26
16355;BME280;8287;51.644;8.494;2022-09-16T04:12:42;99663.94;;;15.01;83.30
16355;BME280;8287;51.644;8.494;2022-09-16T04:15:09;99663.88;;;14.97;83.82
16355;BME280;8287;51.644;8.494;2022-09-16T04:17:36;99664.47;;;14.91;84.10
16355;BME280;8287;51.644;8.494;2022-09-16T04:20:04;99662.44;;;14.84;84.01
16355;BME280;8287;51.644;8.494;2022-09-16T04:22:31;99667.84;;;14.88;84.80
16355;BME280;8287;51.644;8.494;2022-09-16T04:24:58;99661.59;;;14.80;85.23
16355;BME280;8287;51.644;8.494;2022-09-16T04:27:26;99665.50;;;14.86;84.74
16355;BME280;8287;51.644;8.494;2022-09-16T04:29:52;99660.69;;;14.92;84.73
16355;BME280;8287;51.644;8.494;2022-09-16T04:32:19;99658.38;;;14.90;83.96
16355;BME280;8287;51.644;8.494;2022-09-16T04:34:45;99658.38;;;14.90;84.48
16355;BME280;8287;51.644;8.494;2022-09-16T04:37:12;99653.72;;;14.87;84.54
16355;BME280;8287;51.644;8.494;2022-09-16T04:39:39;99655.53;;;14.83;84.29
16355;BME280;8287;51.644;8.494;2022-09-16T04:42:05;99652.16;;;14.86;83.83
16355;BME280;8287;51.644;8.494;2022-09-16T04:44:33;99658.91;;;14.80;84.50
16355;BME280;8287;51.644;8.494;2022-09-16T04:47:00;99659.06;;;14.87;84.20
16355;BME280;8287;51.644;8.494;2022-09-16T04:49:26;99648.25;;;14.80;84.55
16355;BME280;8287;51.644;8.494;2022-09-16T04:51:53;99652.88;;;14.83;84.32
16355;BME280;8287;51.644;8.494;2022-09-16T04:54:19;99656.59;;;14.79;84.60
16355;BME280;8287;51.644;8.494;2022-09-16T04:56:46;99649.28;;;14.76;84.61
16355;BME280;8287;51.644;8.494;2022-09-16T04:59:13;99656.66;;;14.82;84.75
16355;BME280;8287;51.644;8.494;2022-09-16T05:01:41;99651.25;;;14.79;84.18
16355;BME280;8287;51.644;8.494;2022-09-16T05:04:08;99646.19;;;14.74;85.20
16355;BME280;8287;51.644;8.494;2022-09-16T05:06:37;99653.50;;;14.77;85.11
16355;BME280;8287;51.644;8.494;2022-09-16T05:09:05;99648.25;;;14.80;84.86
16355;BME280;8287;51.644;8.494;2022-09-16T05:11:35;99646.53;;;14.72;84.88
16355;BME280;8287;51.644;8.494;2022-09-16T05:14:03;99645.59;;;14.80;84.40
16355;BME280;8287;51.644;8.494;2022-09-16T05:16:30;99649.09;;;14.84;84.19
16355;BME280;8287;51.644;8.494;2022-09-16T05:19:00;99649.88;;;14.85;84.20
16355;BME280;8287;51.644;8.494;2022-09-16T05:21:31;99657.97;;;14.88;83.83
16355;BME280;8287;51.644;8.494;2022-09-16T05:23:59;99648.47;;;14.91;83.99
16355;BME280;8287;51.644;8.494;2022-09-16T05:26:28;99657.59;;;14.90;84.18
16355;BME280;8287;51.644;8.494;2022-09-16T05:28:59;99652.34;;;14.93;84.05
16355;BME280;8287;51.644;8.494;2022-09-16T05:31:27;99663.41;;;14.95;83.45
16355;BME280;8287;51.644;8.494;2022-09-16T05:33:56;99666.63;;;14.85;83.76
16355;BME280;8287;51.644;8.494;2022-09-16T05:36:25;99675.66;;;14.96;83.49
16355;BME280;8287;51.644;8.494;2022-09-16T05:38:52;99668.19;;;14.86;83.59
16355;BME280;8287;51.644;8.494;2022-09-16T05:41:19;99671.88;;;14.82;83.86
16355;BME280;8287;51.644;8.494;2022-09-16T05:43:45;99676.88;;;14.83;83.25
16355;BME280;8287;51.644;8.494;2022-09-16T05:46:16;99673.63;;;14.74;83.87
16355;BME280;8287;51.644;8.494;2022-09-16T05:48:43;99674.84;;;14.77;83.78
16355;BME280;8287;51.644;8.494;2022-09-16T05:51:12;99679.94;;;14.66;83.70
16355;BME280;8287;51.644;8.494;2022-09-16T05:53:41;99677.88;;;14.60;84.16
16355;BME280;8287;51.644;8.494;2022-09-16T05:56:10;99684.22;;;14.71;83.97
16355;BME280;8287;51.644;8.494;2022-09-16T05:58:37;99688.09;;;14.73;83.61
16355;BME280;8287;51.644;8.494;2022-09-16T06:01:05;99692.47;;;14.81;83.77
16355;BME280;8287;51.644;8.494;2022-09-16T06:03:33;99676.88;;;14.83;83.47
16355;BME280;8287;51.644;8.494;2022-09-16T06:06:00;99683.97;;;14.76;83.32
16355;BME280;8287;51.644;8.494;2022-09-16T06:08:27;99679.81;;;14.78;83.45
16355;BME280;8287;51.644;8.494;2022-09-16T06:10:56;99678.63;;;14.60;83.78
16355;BME280;8287;51.644;8.494;2022-09-16T06:13:22;99667.72;;;14.65;84.15
16355;BME280;8287;51.644;8.494;2022-09-16T06:15:49;99680.25;;;14.80;84.03
16355;BME280;8287;51.644;8.494;2022-09-16T06:18:18;99673.59;;;14.90;83.43
16355;BME280;8287;51.644;8.494;2022-09-16T06:20:45;99679.88;;;14.97;83.87
16355;BME280;8287;51.644;8.494;2022-09-16T06:23:12;99673.25;;;14.91;83.28
16355;BME280;8287;51.644;8.494;2022-09-16T06:25:39;99673.75;;;14.97;83.80
16355;BME280;8287;51.644;8.494;2022-09-16T06:28:07;99675.13;;;14.91;84.04
16355;BME280;8287;51.644;8.494;2022-09-16T06:30:36;99675.59;;;14.93;84.09
16355;BME280;8287;51.644;8.494;2022-09-16T06:33:02;99675.28;;;14.98;83.91
16355;BME280;8287;51.644;8.494;2022-09-16T06:35:29;99665.69;;;15.12;83.28
16355;BME280;8287;51.644;8.494;2022-09-16T06:37:56;99661.47;;;15.11;82.80
16355;BME280;8287;51.644;8.494;2022-09-16T06:40:24;99667.19;;;15.10;82.78
16355;BME280;8287;51.644;8.494;2022-09-16T06:42:51;99670.91;;;15.05;83.17
16355;BME280;8287;51.644;8.494;2022-09-16T06:45:20;99666.66;;;15.04;83.12
16355;BME280;8287;51.644;8.494;2022-09-16T06:47:46;99678.19;;;15.08;82.88
16355;BME280;8287;51.644;8.494;2022-09-16T06:50:13;99673.84;;;15.00;82.87
16355;BME280;8287;51.644;8.494;2022-09-16T06:52:40;99670.91;;;15.05;82.67
16355;BME280;8287;51.644;8.494;2022-09-16T06:55:07;99676.81;;;15.14;82.33
16355;BME280;8287;51.644;8.494;2022-09-16T06:57:33;99685.16;;;15.13;82.65
16355;BME280;8287;51.644;8.494;2022-09-16T07:00:00;99680.09;;;15.08;82.53
16355;BME280;8287;51.644;8.494;2022-09-16T07:02:28;99671.97;;;15.20;81.59
16355;BME280;8287;51.644;8.494;2022-09-16T07:04:56;99679.63;;;15.21;82.49
16355;BME280;8287;51.644;8.494;2022-09-16T07:07:22;99677.81;;;15.25;82.16
16355;BME280;8287;51.644;8.494;2022-09-16T07:09:49;99681.94;;;15.23;82.22
16355;BME280;8287;51.644;8.494;2022-09-16T07:12:15;99682.72;;;15.23;82.00
16355;BME280;8287;51.644;8.494;2022-09-16T07:14:42;99690.66;;;15.20;82.11
16355;BME280;8287;51.644;8.494;2022-09-16T07:17:09;99693.56;;;15.30;82.23
16355;BME280;8287;51.644;8.494;2022-09-16T07:19:36;99685.94;;;15.13;82.34
16355;BME280;8287;51.644;8.494;2022-09-16T07:22:03;99693.94;;;15.13;82.46
16355;BME280;8287;51.644;8.494;2022-09-16T07:24:30;99693.88;;;15.10;81.74
16355;BME280;8287;51.644;8.494;2022-09-16T07:26:56;99693.25;;;15.16;81.73
16355;BME280;8287;51.644;8.494;2022-09-16T07:29:23;99691.41;;;15.20;80.81
16355;BME280;8287;51.644;8.494;2022-09-16T07:31:50;99697.38;;;15.14;80.99
16355;BME280;8287;51.644;8.494;2022-09-16T07:34:16;99696.63;;;14.98;81.50
16355;BME280;8287;51.644;8.494;2022-09-16T07:36:47;99696.22;;;14.96;81.67
16355;BME280;8287;51.644;8.494;2022-09-16T07:39:15;99701.63;;;14.99;81.29
16355;BME280;8287;51.644;8.494;2022-09-16T07:41:44;99702.84;;;15.02;81.80
16355;BME280;8287;51.644;8.494;2022-09-16T07:44:12;99708.38;;;15.12;81.58
16355;BME280;8287;51.644;8.494;2022-09-16T07:46:40;99704.63;;;15.13;81.01
16355;BME280;8287;51.644;8.494;2022-09-16T07:49:08;99698.44;;;15.28;81.12
16355;BME280;8287;51.644;8.494;2022-09-16T07:51:36;99706.72;;;15.39;80.87
16355;BME280;8287;51.644;8.494;2022-09-16T07:54:06;99705.81;;;15.50;80.34
16355;BME280;8287;51.644;8.494;2022-09-16T07:56:35;99716.91;;;15.52;79.81
16355;BME280;8287;51.644;8.494;2022-09-16T07:59:05;99709.69;;;15.53;78.83
16355;BME280;8287;51.644;8.494;2022-09-16T08:01:32;99709.53;;;15.46;78.68
16355;BME280;8287;51.644;8.494;2022-09-16T08:04:00;99725.97;;;15.48;78.21
16355;BME280;8287;51.644;8.494;2022-09-16T08:06:29;99716.09;;;15.33;78.58
16355;BME280;8287;51.644;8.494;2022-09-16T08:08:57;99715.16;;;15.25;79.01
16355;BME280;8287;51.644;8.494;2022-09-16T08:11:27;99715.59;;;15.27;78.39
16355;BME280;8287;51.644;8.494;2022-09-16T08:13:54;99721.41;;;15.14;78.35
16355;BME280;8287;51.644;8.494;2022-09-16T08:16:22;99721.81;;;15.16;79.28
16355;BME280;8287;51.644;8.494;2022-09-16T08:18:50;99717.53;;;15.11;79.09
16355;BME280;8287;51.644;8.494;2022-09-16T08:21:20;99715.50;;;15.24;79.16
16355;BME280;8287;51.644;8.494;2022-09-16T08:23:47;99714.75;;;15.23;79.13
16355;BME280;8287;51.644;8.494;2022-09-16T08:26:14;99718.97;;;15.24;79.70
16355;BME280;8287;51.644;8.494;2022-09-16T08:28:44;99718.03;;;15.32;79.91
16355;BME280;8287;51.644;8.494;2022-09-16T08:31:12;99720.47;;;15.41;79.49
16355;BME280;8287;51.644;8.494;2022-09-16T08:33:39;99716.25;;;15.40;79.01
16355;BME280;8287;51.644;8.494;2022-09-16T08:36:09;99711.63;;;15.56;79.18
16355;BME280;8287;51.644;8.494;2022-09-16T08:38:38;99717.13;;;15.63;78.51
16355;BME280;8287;51.644;8.494;2022-09-16T08:41:14;99721.00;;;15.65;78.26
16355;BME280;8287;51.644;8.494;2022-09-16T08:43:52;99713.75;;;15.85;77.89
16355;BME280;8287;51.644;8.494;2022-09-16T08:46:25;99728.34;;;15.91;77.90
16355;BME280;8287;51.644;8.494;2022-09-16T08:48:59;99722.00;;;15.99;76.79
16355;BME280;8287;51.644;8.494;2022-09-16T08:51:28;99724.09;;;16.09;76.63
16355;BME280;8287;51.644;8.494;2022-09-16T08:53:57;99716.28;;;16.19;76.52
16355;BME280;8287;51.644;8.494;2022-09-16T08:56:27;99719.50;;;16.28;74.84
16355;BME280;8287;51.644;8.494;2022-09-16T08:58:58;99715.81;;;16.36;74.28
16355;BME280;8287;51.644;8.494;2022-09-16T09:01:30;99728.84;;;16.38;73.75
16355;BME280;8287;51.644;8.494;2022-09-16T09:03:58;99720.75;;;16.34;72.13
16355;BME280;8287;51.644;8.494;2022-09-16T09:06:44;99725.41;;;16.37;72.47
16355;BME280;8287;51.644;8.494;2022-09-16T09:09:24;99733.31;;;16.53;71.07
16355;BME280;8287;51.644;8.494;2022-09-16T09:12:07;99727.22;;;16.33;70.26
16355;BME280;8287;51.644;8.494;2022-09-16T09:14:56;99724.91;;;16.32;72.25
16355;BME280;8287;51.644;8.494;2022-09-16T09:17:42;99737.78;;;16.26;71.67
16355;BME280;8287;51.644;8.494;2022-09-16T09:20:19;99720.13;;;16.41;71.85
16355;BME280;8287;51.644;8.494;2022-09-16T09:23:02;99724.16;;;16.54;70.74
16355;BME280;8287;51.644;8.494;2022-09-16T09:25:40;99721.50;;;16.54;70.44
16355;BME280;8287;51.644;8.494;2022-09-16T09:28:30;99723.84;;;16.59;69.37
16355;BME280;8287;51.644;8.494;2022-09-16T09:31:04;99715.25;;;16.69;68.75
16355;BME280;8287;51.644;8.494;2022-09-16T09:33:40;99715.03;;;16.80;68.34
16355;BME280;8287;51.644;8.494;2022-09-16T09:36:39;99715.25;;;16.94;66.99
16355;BME280;8287;51.644;8.494;2022-09-16T09:39:30;99722.34;;;17.09;65.45
16355;BME280;8287;51.644;8.494;2022-09-16T09:42:02;99715.53;;;17.41;66.93
16355;BME280;8287;51.644;8.494;2022-09-16T09:44:40;99706.53;;;17.56;65.74
16355;BME280;8287;51.644;8.494;2022-09-16T09:47:21;99708.91;;;17.61;63.69
16355;BME280;8287;51.644;8.494;2022-09-16T09:49:50;99716.22;;;17.64;63.20
16355;BME280;8287;51.644;8.494;2022-09-16T09:52:27;99708.16;;;17.64;63.39
16355;BME280;8287;51.644;8.494;2022-09-16T09:55:04;99699.44;;;17.71;63.44
16355;BME280;8287;51.644;8.494;2022-09-16T09:57:38;99706.03;;;17.77;63.31
16355;BME280;8287;51.644;8.494;2022-09-16T10:00:17;99703.75;;;17.79;62.36
16355;BME280;8287;51.644;8.494;2022-09-16T10:02:50;99696.13;;;17.84;62.50
16355;BME280;8287;51.644;8.494;2022-09-16T10:05:20;99704.47;;;17.76;61.43
16355;BME280;8287;51.644;8.494;2022-09-16T10:07:48;99703.66;;;17.72;58.81
16355;BME280;8287;51.644;8.494;2022-09-16T10:10:20;99709.13;;;17.82;59.53
16355;BME280;8287;51.644;8.494;2022-09-16T10:12:47;99707.75;;;17.95;59.65
16355;BME280;8287;51.644;8.494;2022-09-16T10:15:21;99697.19;;;18.13;58.28
16355;BME280;8287;51.644;8.494;2022-09-16T10:17:50;99701.63;;;18.31;58.37
16355;BME280;8287;51.644;8.494;2022-09-16T10:20:24;99702.03;;;18.37;58.22
16355;BME280;8287;51.644;8.494;2022-09-16T10:22:56;99700.50;;;18.36;58.13
16355;BME280;8287;51.644;8.494;2022-09-16T10:25:24;99699.13;;;18.12;57.29
16355;BME280;8287;51.644;8.494;2022-09-16T10:27:54;99701.75;;;18.09;57.14
16355;BME280;8287;51.644;8.494;2022-09-16T10:30:22;99707.13;;;18.09;57.13
16355;BME280;8287;51.644;8.494;2022-09-16T10:32:55;99697.22;;;17.80;53.60
16355;BME280;8287;51.644;8.494;2022-09-16T10:35:25;99696.56;;;17.86;54.22
16355;BME280;8287;51.644;8.494;2022-09-16T10:37:53;99701.50;;;17.84;55.04
16355;BME280;8287;51.644;8.494;2022-09-16T10:40:21;99685.44;;;17.88;56.47
16355;BME280;8287;51.644;8.494;2022-09-16T10:42:49;99691.31;;;18.00;53.84
16355;BME280;8287;51.644;8.494;2022-09-16T10:45:22;99696.41;;;18.09;51.17
16355;BME280;8287;51.644;8.494;2022-09-16T10:47:53;99688.75;;;18.11;51.98
16355;BME280;8287;51.644;8.494;2022-09-16T10:50:21;99681.19;;;18.20;52.01
16355;BME280;8287;51.644;8.494;2022-09-16T10:52:48;99684.69;;;18.24;52.69
16355;BME280;8287;51.644;8.494;2022-09-16T10:55:22;99684.06;;;18.37;51.46
16355;BME280;8287;51.644;8.494;2022-09-16T10:57:49;99685.16;;;18.33;51.27
16355;BME280;8287;51.644;8.494;2022-09-16T11:00:17;99684.25;;;18.22;50.01
16355;BME280;8287;51.644;8.494;2022-09-16T11:05:46;99674.91;;;18.42;50.98
16355;BME280;8287;51.644;8.494;2022-09-16T11:08:20;99676.88;;;18.52;50.05
16355;BME280;8287;51.644;8.494;2022-09-16T11:10:58;99678.13;;;18.65;50.15
16355;BME280;8287;51.644;8.494;2022-09-16T11:13:38;99667.84;;;18.77;49.46
16355;BME280;8287;51.644;8.494;2022-09-16T11:16:21;99674.16;;;18.99;49.06
16355;BME280;8287;51.644;8.494;2022-09-16T11:18:56;99668.00;;;19.02;48.84
16355;BME280;8287;51.644;8.494;2022-09-16T11:21:42;99673.25;;;18.84;49.03
16355;BME280;8287;51.644;8.494;2022-09-16T11:27:09;99655.66;;;18.87;50.79
16355;BME280;8287;51.644;8.494;2022-09-16T11:29:51;99663.41;;;19.06;49.10
16355;BME280;8287;51.644;8.494;2022-09-16T11:32:27;99659.75;;;19.31;50.07
16355;BME280;8287;51.644;8.494;2022-09-16T11:35:06;99656.69;;;19.40;47.90
16355;BME280;8287;51.644;8.494;2022-09-16T11:37:48;99653.63;;;19.38;47.47
16355;BME280;8287;51.644;8.494;2022-09-16T11:40:27;99651.34;;;19.43;47.15
16355;BME280;8287;51.644;8.494;2022-09-16T11:43:07;99647.22;;;19.67;47.33
16355;BME280;8287;51.644;8.494;2022-09-16T11:45:46;99645.31;;;19.81;46.82
16355;BME280;8287;51.644;8.494;2022-09-16T11:48:37;99648.41;;;19.90;47.84
16355;BME280;8287;51.644;8.494;2022-09-16T11:51:13;99649.91;;;19.67;46.35
16355;BME280;8287;51.644;8.494;2022-09-16T11:53:59;99640.63;;;19.57;46.49
16355;BME280;8287;51.644;8.494;2022-09-16T11:56:34;99639.88;;;19.64;47.18
16355;BME280;8287;51.644;8.494;2022-09-16T11:59:13;99645.31;;;19.81;47.97
16355;BME280;8287;51.644;8.494;2022-09-16T12:01:43;99651.44;;;19.75;47.67
16355;BME280;8287;51.644;8.494;2022-09-16T12:04:16;99641.03;;;19.59;47.91
16355;BME280;8287;51.644;8.494;2022-09-16T12:06:51;99645.97;;;19.43;48.21
16355;BME280;8287;51.644;8.494;2022-09-16T12:09:29;99643.56;;;19.21;47.46
16355;BME280;8287;51.644;8.494;2022-09-16T12:12:04;99640.59;;;19.47;49.38
16355;BME280;8287;51.644;8.494;2022-09-16T12:14:39;99644.50;;;19.74;48.52
16355;BME280;8287;51.644;8.494;2022-09-16T12:17:11;99646.03;;;19.64;48.63
16355;BME280;8287;51.644;8.494;2022-09-16T12:19:46;99646.78;;;19.58;50.22
16355;BME280;8287;51.644;8.494;2022-09-16T12:22:18;99642.50;;;19.36;50.62
16355;BME280;8287;51.644;8.494;2022-09-16T12:24:52;99642.81;;;19.20;50.48
16355;BME280;8287;51.644;8.494;2022-09-16T12:27:29;99644.03;;;19.37;51.91
16355;BME280;8287;51.644;8.494;2022-09-16T12:30:01;99645.97;;;19.43;50.55
16355;BME280;8287;51.644;8.494;2022-09-16T12:32:34;99651.38;;;19.50;50.95
16355;BME280;8287;51.644;8.494;2022-09-16T12:35:09;99665.56;;;19.47;50.28
16355;BME280;8287;51.644;8.494;2022-09-16T12:37:45;99663.69;;;19.62;50.06
16355;BME280;8287;51.644;8.494;2022-09-16T12:40:17;99659.50;;;19.71;49.25
16355;BME280;8287;51.644;8.494;2022-09-16T12:43:16;99656.00;;;19.50;47.97
16355;BME280;8287;51.644;8.494;2022-09-16T12:46:10;99671.34;;;19.53;49.18
16355;BME280;8287;51.644;8.494;2022-09-16T12:51:56;99649.47;;;19.61;48.85
16355;BME280;8287;51.644;8.494;2022-09-16T12:57:39;99649.53;;;19.86;48.65
16355;BME280;8287;51.644;8.494;2022-09-16T13:00:13;99638.03;;;19.99;48.11
16355;BME280;8287;51.644;8.494;2022-09-16T13:02:44;99636.13;;;20.00;48.40
16355;BME280;8287;51.644;8.494;2022-09-16T13:05:17;99650.72;;;20.02;48.83
16355;BME280;8287;51.644;8.494;2022-09-16T13:07:49;99637.69;;;20.15;48.40
16355;BME280;8287;51.644;8.494;2022-09-16T13:10:19;99634.19;;;20.04;48.47
16355;BME280;8287;51.644;8.494;2022-09-16T13:12:53;99634.59;;;20.09;49.19
16355;BME280;8287;51.644;8.494;2022-09-16T13:15:25;99630.00;;;20.24;50.02
16355;BME280;8287;51.644;8.494;2022-09-16T13:17:54;99631.53;;;20.42;49.34
16355;BME280;8287;51.644;8.494;2022-09-16T13:20:25;99631.53;;;20.38;47.32
16355;BME280;8287;51.644;8.494;2022-09-16T13:23:04;99635.78;;;20.26;47.80
16355;BME280;8287;51.644;8.494;2022-09-16T13:25:40;99625.38;;;20.48;47.76
16355;BME280;8287;51.644;8.494;2022-09-16T13:28:24;99630.38;;;20.39;47.35
16355;BME280;8287;51.644;8.494;2022-09-16T13:30:52;99637.28;;;20.40;47.06
16355;BME280;8287;51.644;8.494;2022-09-16T13:33:25;99628.09;;;20.28;47.79
16355;BME280;8287;51.644;8.494;2022-09-16T13:36:12;99626.16;;;20.38;47.49
16355;BME280;8287;51.644;8.494;2022-09-16T13:38:42;99621.94;;;20.34;47.66
16355;BME280;8287;51.644;8.494;2022-09-16T13:41:10;99629.22;;;20.40;48.12
16355;BME280;8287;51.644;8.494;2022-09-16T13:43:51;99625.38;;;20.48;48.05
16355;BME280;8287;51.644;8.494;2022-09-16T13:46:31;99625.75;;;20.61;47.28
16355;BME280;8287;51.644;8.494;2022-09-16T13:49:09;99636.50;;;20.57;47.11
16355;BME280;8287;51.644;8.494;2022-09-16T13:51:41;99618.06;;;20.56;46.75